createdAt,value
2022-09-07T00:01:09.684Z,1.35
2022-09-07T00:03:41.098Z,1.40
2022-09-07T00:06:12.417Z,1.45
2022-09-07T00:08:42.222Z,1.30
2022-09-07T00:11:14.219Z,1.27
2022-09-07T00:13:43.577Z,1.30
2022-09-07T00:16:14.409Z,1.02
2022-09-07T00:18:46.281Z,1.35
2022-09-07T00:21:17.041Z,1.30
2022-09-07T00:23:45.892Z,1.15
2022-09-07T00:26:15.654Z,1.25
2022-09-07T00:28:44.373Z,1.30
2022-09-07T00:31:14.470Z,1.40
2022-09-07T00:33:44.356Z,1.70
2022-09-07T00:36:12.882Z,1.90
2022-09-07T00:38:41.096Z,1.80
2022-09-07T00:41:09.361Z,1.65
2022-09-07T00:43:40.301Z,1.65
2022-09-07T00:46:15.499Z,1.63
2022-09-07T00:48:52.320Z,1.88
2022-09-07T00:51:26.672Z,1.58
2022-09-07T01:16:12.012Z,1.40
2022-09-07T01:18:46.620Z,1.25
2022-09-07T01:21:24.917Z,1.40
2022-09-07T01:24:34.474Z,1.50
2022-09-07T01:27:36.917Z,1.10
2022-09-07T01:30:07.396Z,1.42
2022-09-07T01:33:05.093Z,1.40
2022-09-07T01:35:41.192Z,1.48
2022-09-07T01:38:15.861Z,1.80
2022-09-07T01:40:50.245Z,1.17
2022-09-07T01:43:31.221Z,1.30
2022-09-07T01:46:02.644Z,1.50
2022-09-07T01:48:33.862Z,1.52
2022-09-07T01:51:04.702Z,1.27
2022-09-07T01:53:37.757Z,1.40
2022-09-07T01:56:12.019Z,1.60
2022-09-07T01:58:46.092Z,1.67
2022-09-07T02:01:21.062Z,1.60
2022-09-07T02:03:53.705Z,1.60
2022-09-07T02:06:27.966Z,1.50
2022-09-07T02:09:00.894Z,1.80
2022-09-07T02:11:34.861Z,1.40
2022-09-07T02:14:12.030Z,1.58
2022-09-07T02:39:45.485Z,1.88
2022-09-07T02:42:13.996Z,2.15
2022-09-07T02:44:45.625Z,2.60
2022-09-07T02:47:25.991Z,2.22
2022-09-07T02:50:30.008Z,2.38
2022-09-07T02:53:12.681Z,2.50
2022-09-07T02:55:54.733Z,2.38
2022-09-07T02:58:34.561Z,3.83
2022-09-07T03:01:11.976Z,3.33
2022-09-07T03:03:49.099Z,4.10
2022-09-07T03:06:25.244Z,4.22
2022-09-07T03:08:57.515Z,4.20
2022-09-07T03:11:27.837Z,4.50
2022-09-07T03:14:17.293Z,4.22
2022-09-07T03:16:45.678Z,4.50
2022-09-07T03:19:13.643Z,4.07
2022-09-07T03:21:41.823Z,3.70
2022-09-07T03:24:10.972Z,3.70
2022-09-07T03:26:44.109Z,3.38
2022-09-07T03:29:12.412Z,3.95
2022-09-07T03:31:40.354Z,4.13
2022-09-07T03:34:08.636Z,4.07
2022-09-07T03:36:37.039Z,3.90
2022-09-07T03:39:07.432Z,3.60
2022-09-07T03:41:36.059Z,4.63
2022-09-07T03:44:06.660Z,4.43
2022-09-07T03:46:35.509Z,4.40
2022-09-07T03:49:03.594Z,4.13
2022-09-07T03:51:31.577Z,4.32
2022-09-07T03:54:00.723Z,4.65
2022-09-07T03:56:28.844Z,4.32
2022-09-07T03:58:56.881Z,5.03
2022-09-07T04:01:28.185Z,6.63
2022-09-07T04:04:02.095Z,4.78
2022-09-07T04:06:31.460Z,4.47
2022-09-07T04:12:02.343Z,4.72
2022-09-07T04:14:30.393Z,4.20
2022-09-07T04:26:31.827Z,4.45
2022-09-07T04:29:01.067Z,4.95
2022-09-07T04:31:29.028Z,4.82
2022-09-07T04:33:57.843Z,5.40
2022-09-07T04:36:25.931Z,5.03
2022-09-07T04:39:00.876Z,5.05
2022-09-07T04:41:31.799Z,4.45
2022-09-07T04:44:01.258Z,5.03
2022-09-07T04:52:35.132Z,5.38
2022-09-07T04:55:04.084Z,5.85
2022-09-07T04:57:33.427Z,5.47
2022-09-07T05:00:01.572Z,5.65
2022-09-07T05:02:30.844Z,5.50
2022-09-07T05:05:02.609Z,5.15
2022-09-07T05:07:31.122Z,5.82
2022-09-07T05:09:59.142Z,5.90
2022-09-07T05:12:27.620Z,5.72
2022-09-07T05:15:03.422Z,5.50
2022-09-07T05:17:32.394Z,5.55
2022-09-07T05:35:58.939Z,3.70
2022-09-07T05:38:29.211Z,4.50
2022-09-07T05:40:58.481Z,4.30
2022-09-07T05:43:26.502Z,4.93
2022-09-07T05:45:57.306Z,4.70
2022-09-07T05:51:37.256Z,4.50
2022-09-07T05:54:05.488Z,4.50
2022-09-07T05:56:35.141Z,4.55
2022-09-07T05:59:03.100Z,4.55
2022-09-07T06:01:31.947Z,4.65
2022-09-07T06:04:00.261Z,3.80
2022-09-07T06:06:28.734Z,4.20
2022-09-07T06:08:58.747Z,4.20
2022-09-07T06:11:27.251Z,4.30
2022-09-07T06:13:56.980Z,4.80
2022-09-07T06:16:26.109Z,4.68
2022-09-07T06:18:54.425Z,4.53
2022-09-07T06:21:25.155Z,3.88
2022-09-07T06:23:53.368Z,3.70
2022-09-07T06:26:25.585Z,3.55
2022-09-07T06:28:57.773Z,3.60
2022-09-07T06:31:27.256Z,3.15
2022-09-07T06:34:01.180Z,3.38
2022-09-07T06:36:29.772Z,3.00
2022-09-07T06:39:07.004Z,2.60
2022-09-07T06:44:31.111Z,3.10
2022-09-07T06:49:30.203Z,2.78
2022-09-07T06:51:58.160Z,2.90
2022-09-07T06:57:16.004Z,2.95
2022-09-07T06:59:44.362Z,2.78
2022-09-07T07:02:14.862Z,3.42
2022-09-07T07:04:42.753Z,2.60
2022-09-07T07:07:11.692Z,3.25
2022-09-07T07:09:39.997Z,2.60
2022-09-07T07:12:08.170Z,2.90
2022-09-07T07:14:41.059Z,2.28
2022-09-07T07:17:11.233Z,2.85
2022-09-07T07:19:39.134Z,2.60
2022-09-07T07:22:23.893Z,3.63
2022-09-07T07:24:55.098Z,3.17
2022-09-07T07:27:22.868Z,2.72
2022-09-07T07:29:52.555Z,2.47
2022-09-07T07:32:20.473Z,3.42
2022-09-07T07:34:48.429Z,6.60
2022-09-07T07:37:16.406Z,7.30
2022-09-07T07:42:32.492Z,2.85
2022-09-07T07:47:51.444Z,3.35
2022-09-07T07:50:34.929Z,2.88
2022-09-07T07:55:51.275Z,2.63
2022-09-07T07:58:19.471Z,2.45
2022-09-07T08:00:56.501Z,2.22
2022-09-07T08:03:25.957Z,2.38
2022-09-07T08:05:54.057Z,2.15
2022-09-07T08:08:22.947Z,2.25
2022-09-07T08:10:51.380Z,2.30
2022-09-07T08:13:19.448Z,1.77
2022-09-07T08:15:48.886Z,1.60
2022-09-07T08:18:18.045Z,1.70
2022-09-07T08:20:46.557Z,1.63
2022-09-07T08:23:15.197Z,1.48
2022-09-07T08:25:51.121Z,1.30
2022-09-07T08:28:19.408Z,1.30
2022-09-07T08:30:48.812Z,1.25
2022-09-07T08:33:17.089Z,1.20
2022-09-07T08:35:55.413Z,1.25
2022-09-07T08:38:23.521Z,1.70
2022-09-07T08:40:51.951Z,1.70
2022-09-07T08:43:29.856Z,1.17
2022-09-07T08:46:05.159Z,1.15
2022-09-07T08:48:35.154Z,1.10
2022-09-07T08:51:10.537Z,1.48
2022-09-07T08:53:44.851Z,1.58
2022-09-07T08:56:19.471Z,1.40
2022-09-07T08:58:50.447Z,1.67
2022-09-07T09:01:37.018Z,1.25
2022-09-07T09:04:16.699Z,1.05
2022-09-07T09:06:54.945Z,1.25
2022-09-07T09:09:34.688Z,1.20
2022-09-07T09:12:16.598Z,1.48
2022-09-07T09:14:59.182Z,1.30
2022-09-07T09:17:33.975Z,1.63
2022-09-07T09:20:16.297Z,1.30
2022-09-07T09:22:44.649Z,1.48
2022-09-07T09:25:20.551Z,1.30
2022-09-07T09:27:49.444Z,1.23
2022-09-07T09:30:19.233Z,1.20
2022-09-07T09:32:50.289Z,1.00
2022-09-07T09:35:29.906Z,1.15
2022-09-07T09:37:59.299Z,1.10
2022-09-07T09:40:31.334Z,1.30
2022-09-07T09:43:02.140Z,1.35
2022-09-07T09:46:12.236Z,1.10
2022-09-07T09:48:29.865Z,1.20
2022-09-07T09:54:02.636Z,1.00
2022-09-07T09:56:41.682Z,1.10
2022-09-07T10:05:35.682Z,1.00
2022-09-07T10:08:07.274Z,1.13
2022-09-07T10:10:39.188Z,1.20
2022-09-07T10:13:09.230Z,0.90
2022-09-07T10:15:40.514Z,0.90
2022-09-07T10:18:21.280Z,1.20
2022-09-07T10:20:53.697Z,1.20
2022-09-07T10:23:24.164Z,1.00
2022-09-07T10:25:52.179Z,1.17
2022-09-07T10:28:22.136Z,1.13
2022-09-07T10:31:15.868Z,1.23
2022-09-07T10:36:49.534Z,1.25
2022-09-07T10:39:23.801Z,1.35
2022-09-07T10:42:02.617Z,1.13
2022-09-07T10:44:47.511Z,1.30
2022-09-07T10:47:27.038Z,1.15
2022-09-07T10:52:55.369Z,1.13
2022-09-07T10:55:28.729Z,1.35
2022-09-07T10:58:05.934Z,1.30
2022-09-07T11:00:43.058Z,1.25
2022-09-07T11:03:29.624Z,1.00
2022-09-07T11:06:08.330Z,1.35
2022-09-07T11:14:35.267Z,1.45
2022-09-07T11:17:06.953Z,1.30
2022-09-07T11:19:41.325Z,1.33
2022-09-07T11:22:20.229Z,1.25
2022-09-07T11:27:48.173Z,1.20
2022-09-07T11:30:22.367Z,1.55
2022-09-07T11:33:02.794Z,1.58
2022-09-07T11:35:38.261Z,3.47
2022-09-07T11:38:17.577Z,1.50
2022-09-07T11:40:56.191Z,1.30
2022-09-07T11:43:29.136Z,1.50
2022-09-07T11:46:02.401Z,1.17
2022-09-07T11:48:36.443Z,1.13
2022-09-07T11:51:10.033Z,1.20
2022-09-07T11:53:46.585Z,1.08
2022-09-07T11:56:22.665Z,1.08
2022-09-07T12:07:51.612Z,1.33
2022-09-07T12:10:50.559Z,1.23
2022-09-07T12:13:37.095Z,1.25
2022-09-07T12:16:12.205Z,1.38
2022-09-07T12:18:58.026Z,1.75
2022-09-07T12:22:33.140Z,1.17
2022-09-07T12:25:51.016Z,1.40
2022-09-07T12:32:55.399Z,1.13
2022-09-07T12:40:03.818Z,1.25
2022-09-07T12:44:01.990Z,1.23
2022-09-07T13:57:26.586Z,1.40
2022-09-07T13:59:56.461Z,1.80
2022-09-07T14:02:28.305Z,1.35
2022-09-07T14:05:00.347Z,1.45
2022-09-07T14:07:30.002Z,1.60
2022-09-07T14:10:07.846Z,1.48
2022-09-07T14:12:43.793Z,1.70
2022-09-07T14:15:30.128Z,1.33
2022-09-07T14:18:07.208Z,1.40
2022-09-07T14:20:41.652Z,1.60
2022-09-07T14:23:21.088Z,1.30
2022-09-07T14:28:40.793Z,1.58
2022-09-07T14:31:12.728Z,1.80
2022-09-07T14:33:46.699Z,1.55
2022-09-07T14:36:37.343Z,1.20
2022-09-07T14:39:06.494Z,1.60
2022-09-07T14:41:38.491Z,1.45
2022-09-07T14:44:07.828Z,1.30
2022-09-07T14:46:40.683Z,1.42
2022-09-07T14:49:43.726Z,1.40
2022-09-07T14:52:19.297Z,1.40
2022-09-07T15:38:59.511Z,1.30
2022-09-07T15:41:21.758Z,1.00
2022-09-07T15:43:47.866Z,0.73
2022-09-07T15:46:16.047Z,0.93
2022-09-07T15:48:51.571Z,0.57
2022-09-07T15:54:13.075Z,1.10
2022-09-07T16:19:35.999Z,0.70
2022-09-07T18:03:52.475Z,1.33
2022-09-07T18:06:21.596Z,1.17
2022-09-07T18:56:40.989Z,1.30
2022-09-07T18:59:09.585Z,1.27
2022-09-07T19:01:38.068Z,1.13
2022-09-07T19:04:06.246Z,1.70
2022-09-07T19:06:34.348Z,1.15
2022-09-07T19:09:04.511Z,1.00
2022-09-07T19:11:33.041Z,1.40
2022-09-07T19:14:07.312Z,1.40
2022-09-07T19:20:44.349Z,1.23
2022-09-07T19:23:12.385Z,1.45
2022-09-07T19:25:43.324Z,1.50
2022-09-07T19:28:14.452Z,1.35
2022-09-07T19:30:43.852Z,1.42
2022-09-07T19:33:12.425Z,1.50
2022-09-07T19:35:40.362Z,1.58
2022-09-07T19:38:08.482Z,1.63
2022-09-07T19:40:39.455Z,1.50
2022-09-07T19:43:07.708Z,1.40
2022-09-07T19:45:39.529Z,1.48
2022-09-07T19:48:09.103Z,1.25
2022-09-07T19:50:37.201Z,1.70
2022-09-07T19:53:05.289Z,1.52
2022-09-07T19:55:33.609Z,1.20
2022-09-07T19:58:01.470Z,1.50
2022-09-07T20:00:29.597Z,1.50
2022-09-07T20:02:57.705Z,1.33
2022-09-07T20:05:31.057Z,1.65
2022-09-07T20:07:59.129Z,1.40
2022-09-07T20:10:27.133Z,1.60
2022-09-07T20:12:55.249Z,1.50
2022-09-07T20:15:23.215Z,1.60
2022-09-07T20:17:51.280Z,1.50
2022-09-07T20:20:22.863Z,1.27
2022-09-07T20:22:55.136Z,1.60
2022-09-07T20:25:23.196Z,1.63
2022-09-07T20:27:51.102Z,1.45
2022-09-07T20:30:19.217Z,1.70
2022-09-07T20:32:47.906Z,1.48
2022-09-07T20:35:16.139Z,1.45
2022-09-07T20:37:44.502Z,1.40
2022-09-07T20:40:14.024Z,1.55
2022-09-07T20:42:42.090Z,1.60
2022-09-07T20:45:10.973Z,1.40
2022-09-07T20:47:38.905Z,1.17
2022-09-07T20:50:07.700Z,1.40
2022-09-07T20:52:35.749Z,1.27
2022-09-07T20:55:03.866Z,1.55
2022-09-07T20:57:33.185Z,1.50
2022-09-07T21:00:01.117Z,1.80
2022-09-07T21:02:29.101Z,1.40
2022-09-07T21:04:57.088Z,1.50
2022-09-07T21:07:25.091Z,1.55
2022-09-07T21:09:52.973Z,1.70
2022-09-07T21:12:20.961Z,1.58
2022-09-07T21:14:50.240Z,1.50
2022-09-07T21:17:18.422Z,1.50
2022-09-07T21:19:46.455Z,1.70
2022-09-07T21:22:15.257Z,1.73
2022-09-07T21:24:43.180Z,1.80
2022-09-07T21:27:11.037Z,1.75
2022-09-07T21:29:38.973Z,1.55
2022-09-07T21:32:08.292Z,1.90
2022-09-07T21:34:36.322Z,1.60
2022-09-07T21:37:04.224Z,1.55
2022-09-07T21:39:32.118Z,1.85
2022-09-07T21:42:00.093Z,1.60
2022-09-07T21:44:28.082Z,1.60
2022-09-07T21:46:56.105Z,1.40
2022-09-07T21:49:25.572Z,1.85
2022-09-07T21:51:53.586Z,1.85
2022-09-07T21:54:21.899Z,1.73
2022-09-07T21:56:50.362Z,1.77
2022-09-07T21:59:18.312Z,1.90
2022-09-07T22:01:46.295Z,1.95
2022-09-07T22:04:14.747Z,1.55
2022-09-07T22:06:44.216Z,1.98
2022-09-07T22:09:12.216Z,1.65
2022-09-07T22:11:44.056Z,1.50
2022-09-07T22:14:15.757Z,1.90
2022-09-07T22:16:43.954Z,1.70
2022-09-07T22:19:12.343Z,1.90
2022-09-07T22:21:40.441Z,2.15
2022-09-07T22:24:14.962Z,2.00
2022-09-07T22:26:43.064Z,1.90
2022-09-07T22:29:13.415Z,1.77
2022-09-07T22:31:41.955Z,1.63
2022-09-07T22:34:10.677Z,1.60
2022-09-07T22:36:40.758Z,1.70
2022-09-07T22:39:13.489Z,2.00
2022-09-07T22:41:41.996Z,1.55
2022-09-07T22:44:12.653Z,2.13
2022-09-07T22:46:42.569Z,1.73
2022-09-07T22:49:12.737Z,1.90
2022-09-07T22:51:40.654Z,2.30
2022-09-07T22:54:10.144Z,1.83
2022-09-07T22:56:38.351Z,1.63
2022-09-07T22:59:08.447Z,1.90
2022-09-07T23:01:37.874Z,1.77
2022-09-07T23:04:06.490Z,1.70
2022-09-07T23:06:36.581Z,1.85
2022-09-07T23:09:06.784Z,1.98
2022-09-07T23:11:36.323Z,1.50
2022-09-07T23:14:07.571Z,1.85
2022-09-07T23:16:35.715Z,1.98
2022-09-07T23:19:03.882Z,1.60
2022-09-07T23:21:31.930Z,1.95
2022-09-07T23:24:01.013Z,1.80
2022-09-07T23:26:30.429Z,1.90
2022-09-07T23:29:01.252Z,1.90
2022-09-07T23:31:31.070Z,1.60
2022-09-07T23:33:59.634Z,2.05
2022-09-07T23:36:28.203Z,1.63
2022-09-07T23:38:57.660Z,2.00
2022-09-07T23:41:26.492Z,1.88
2022-09-07T23:43:54.835Z,1.90
2022-09-07T23:46:24.829Z,2.00
2022-09-07T23:48:52.871Z,2.05
2022-09-07T23:51:24.182Z,2.15
2022-09-07T23:53:53.165Z,1.90
2022-09-07T23:56:21.657Z,1.90
2022-09-07T23:58:49.645Z,2.00
